^^
Meteo Knjazevac Station Historical Data
Daily Summary for February 21, 2021 Units:  Both    English   Metric
Daily Weekly Monthly Yearly Custom
  High: Low: Average:
Temperature: 35.1 °F /  1.7 °C 33.6 °F /  0.9 °C 34.5 °F /  1.4 °C
Dew Point: 29.5 °F /  -1.4 °C 28.8 °F /  -1.8 °C 29.1 °F /  -1.6 °C
Humidity: 84% 79% 81%
Wind Speed: 9mph /  14.5km/h - 7mph /  11.3km/h
Wind Gust: 19mph /  30.6km/h - -
Wind- - WSW
Pressure: 30.18 in /  1021.9 hPa 30.16 in /  1021.2 hPa -
Precipitation: 0.00 in /  0 mm    
Historical Graphs
 
 
Tabular Data for February 21, 2021
Time Temperature Dew Point Pressure Wind Wind Speed Wind Gust Humidity Rainfall Rate (Hourly) solar Conditions
00:00 35.1 °F /  1.7 °C 29.5 °F /  -1.4 °C 30.16in /  1021.2hPa WSW 7mph /  11.3km/h 13mph /  20.9km/h 80% 0.00in /  0mm 0 W/m2
00:10 35.1 °F /  1.7 °C 29.5 °F /  -1.4 °C 30.16in /  1021.2hPa WSW 7mph /  11.3km/h 12mph /  19.3km/h 80% 0.00in /  0mm 0 W/m2
00:20 35.1 °F /  1.7 °C 29.5 °F /  -1.4 °C 30.16in /  1021.2hPa WSW 7mph /  11.3km/h 14mph /  22.5km/h 80% 0.00in /  0mm 0 W/m2
00:30 35.1 °F /  1.7 °C 29.2 °F /  -1.6 °C 30.16in /  1021.2hPa West 6mph /  9.7km/h 13mph /  20.9km/h 79% 0.00in /  0mm 0 W/m2
00:40 34.9 °F /  1.6 °C 29.1 °F /  -1.6 °C 30.17in /  1021.6hPa WSW 6mph /  9.7km/h 13mph /  20.9km/h 79% 0.00in /  0mm 0 W/m2
00:50 34.9 °F /  1.6 °C 29 °F /  -1.7 °C 30.17in /  1021.6hPa WSW 7mph /  11.3km/h 13mph /  20.9km/h 79% 0.00in /  0mm 0 W/m2
01:00 34.9 °F /  1.6 °C 29 °F /  -1.7 °C 30.17in /  1021.6hPa WSW 6mph /  9.7km/h 12mph /  19.3km/h 79% 0.00in /  0mm 0 W/m2
01:10 34.9 °F /  1.6 °C 29 °F /  -1.7 °C 30.17in /  1021.6hPa WSW 6mph /  9.7km/h 11mph /  17.7km/h 79% 0.00in /  0mm 0 W/m2
01:20 34.9 °F /  1.6 °C 29 °F /  -1.7 °C 30.17in /  1021.6hPa WSW 6mph /  9.7km/h 13mph /  20.9km/h 79% 0.00in /  0mm 0 W/m2
01:30 34.7 °F /  1.5 °C 28.9 °F /  -1.7 °C 30.17in /  1021.6hPa WSW 6mph /  9.7km/h 12mph /  19.3km/h 79% 0.00in /  0mm 0 W/m2
01:40 34.7 °F /  1.5 °C 28.9 °F /  -1.7 °C 30.17in /  1021.6hPa WSW 8mph /  12.9km/h 14mph /  22.5km/h 79% 0.00in /  0mm 0 W/m2
01:50 34.5 °F /  1.4 °C 29 °F /  -1.7 °C 30.17in /  1021.6hPa WSW 8mph /  12.9km/h 19mph /  30.6km/h 80% 0.00in /  0mm 0 W/m2
02:00 34.5 °F /  1.4 °C 29.3 °F /  -1.5 °C 30.18in /  1021.9hPa WSW 8mph /  12.9km/h 14mph /  22.5km/h 81% 0.00in /  0mm 0 W/m2
02:10 34.2 °F /  1.2 °C 28.9 °F /  -1.7 °C 30.18in /  1021.9hPa WSW 8mph /  12.9km/h 13mph /  20.9km/h 81% 0.00in /  0mm 0 W/m2
02:20 34.2 °F /  1.2 °C 28.9 °F /  -1.7 °C 30.18in /  1021.9hPa WSW 8mph /  12.9km/h 13mph /  20.9km/h 81% 0.00in /  0mm 0 W/m2
02:30 34 °F /  1.1 °C 28.8 °F /  -1.8 °C 30.18in /  1021.9hPa WSW 8mph /  12.9km/h 12mph /  19.3km/h 81% 0.00in /  0mm 0 W/m2
02:40 34 °F /  1.1 °C 29.1 °F /  -1.6 °C 30.18in /  1021.9hPa WSW 7mph /  11.3km/h 15mph /  24.1km/h 82% 0.00in /  0mm 0 W/m2
02:50 33.8 °F /  1 °C 29.2 °F /  -1.6 °C 30.18in /  1021.9hPa WSW 8mph /  12.9km/h 13mph /  20.9km/h 83% 0.00in /  0mm 0 W/m2
03:00 33.8 °F /  1 °C 29.2 °F /  -1.6 °C 30.18in /  1021.9hPa WSW 6mph /  9.7km/h 13mph /  20.9km/h 83% 0.00in /  0mm 0 W/m2
03:10 33.8 °F /  1 °C 29.4 °F /  -1.4 °C 30.18in /  1021.9hPa WSW 6mph /  9.7km/h 15mph /  24.1km/h 84% 0.00in /  0mm 0 W/m2
03:20 33.6 °F /  0.9 °C 29.3 °F /  -1.5 °C 30.18in /  1021.9hPa WSW 7mph /  11.3km/h 13mph /  20.9km/h 84% 0.00in /  0mm 0 W/m2
03:30 33.6 °F /  0.9 °C 29 °F /  -1.7 °C 30.18in /  1021.9hPa WSW 9mph /  14.5km/h 14mph /  22.5km/h 83% 0.00in /  0mm 0 W/m2
Knjazevac, Serbia
Compliments of Weather Underground - 2 mb